sensor_id;sensor_type;location;lat;lon;timestamp;P1;durP1;ratioP1;P2;durP2;ratioP2
6442;SDS011;3254;47.372;8.512;2022-10-16T00:01:34;5.70;;;4.30;;
6442;SDS011;3254;47.372;8.512;2022-10-16T00:04:00;5.23;;;4.20;;
6442;SDS011;3254;47.372;8.512;2022-10-16T00:06:27;10.83;;;4.37;;
6442;SDS011;3254;47.372;8.512;2022-10-16T00:08:53;16.27;;;4.80;;
6442;SDS011;3254;47.372;8.512;2022-10-16T00:11:24;5.63;;;4.27;;
6442;SDS011;3254;47.372;8.512;2022-10-16T00:13:54;6.37;;;5.13;;
6442;SDS011;3254;47.372;8.512;2022-10-16T00:16:22;4.33;;;4.00;;
6442;SDS011;3254;47.372;8.512;2022-10-16T00:18:47;4.60;;;4.00;;
6442;SDS011;3254;47.372;8.512;2022-10-16T00:21:17;3.83;;;3.63;;
6442;SDS011;3254;47.372;8.512;2022-10-16T00:23:45;4.93;;;4.30;;
6442;SDS011;3254;47.372;8.512;2022-10-16T00:26:12;6.10;;;4.23;;
6442;SDS011;3254;47.372;8.512;2022-10-16T00:28:39;6.80;;;4.10;;
6442;SDS011;3254;47.372;8.512;2022-10-16T00:31:07;5.90;;;3.90;;
6442;SDS011;3254;47.372;8.512;2022-10-16T00:33:34;4.97;;;4.40;;
6442;SDS011;3254;47.372;8.512;2022-10-16T00:36:01;4.17;;;3.87;;
6442;SDS011;3254;47.372;8.512;2022-10-16T00:38:28;7.83;;;3.67;;
6442;SDS011;3254;47.372;8.512;2022-10-16T00:40:54;8.67;;;3.70;;
6442;SDS011;3254;47.372;8.512;2022-10-16T00:43:33;16.57;;;4.00;;
6442;SDS011;3254;47.372;8.512;2022-10-16T00:46:08;4.10;;;3.80;;
6442;SDS011;3254;47.372;8.512;2022-10-16T00:48:41;5.00;;;3.70;;
6442;SDS011;3254;47.372;8.512;2022-10-16T00:51:10;10.70;;;3.87;;
6442;SDS011;3254;47.372;8.512;2022-10-16T00:53:36;5.50;;;5.00;;
6442;SDS011;3254;47.372;8.512;2022-10-16T00:56:02;5.10;;;4.30;;
6442;SDS011;3254;47.372;8.512;2022-10-16T00:58:28;4.40;;;3.93;;
6442;SDS011;3254;47.372;8.512;2022-10-16T01:00:53;4.53;;;4.10;;
6442;SDS011;3254;47.372;8.512;2022-10-16T01:03:23;7.10;;;4.10;;
6442;SDS011;3254;47.372;8.512;2022-10-16T01:08:41;4.73;;;4.40;;
6442;SDS011;3254;47.372;8.512;2022-10-16T01:11:31;3.67;;;3.33;;
6442;SDS011;3254;47.372;8.512;2022-10-16T01:13:58;18.87;;;4.20;;
6442;SDS011;3254;47.372;8.512;2022-10-16T01:19:32;9.20;;;4.60;;
6442;SDS011;3254;47.372;8.512;2022-10-16T01:22:20;4.77;;;3.93;;
6442;SDS011;3254;47.372;8.512;2022-10-16T01:24:51;4.80;;;4.00;;
6442;SDS011;3254;47.372;8.512;2022-10-16T01:27:26;4.17;;;3.70;;
6442;SDS011;3254;47.372;8.512;2022-10-16T01:32:40;4.07;;;3.77;;
6442;SDS011;3254;47.372;8.512;2022-10-16T01:35:11;7.93;;;3.80;;
6442;SDS011;3254;47.372;8.512;2022-10-16T01:40:21;4.10;;;3.70;;
6442;SDS011;3254;47.372;8.512;2022-10-16T01:43:14;6.40;;;3.87;;
6442;SDS011;3254;47.372;8.512;2022-10-16T01:45:42;6.63;;;3.20;;
6442;SDS011;3254;47.372;8.512;2022-10-16T01:48:09;8.03;;;3.70;;
6442;SDS011;3254;47.372;8.512;2022-10-16T01:50:39;9.30;;;3.50;;
6442;SDS011;3254;47.372;8.512;2022-10-16T01:53:08;3.80;;;3.40;;
6442;SDS011;3254;47.372;8.512;2022-10-16T01:55:38;13.90;;;3.80;;
6442;SDS011;3254;47.372;8.512;2022-10-16T01:58:08;9.03;;;4.03;;
6442;SDS011;3254;47.372;8.512;2022-10-16T02:00:37;10.47;;;3.50;;
6442;SDS011;3254;47.372;8.512;2022-10-16T02:03:04;7.17;;;3.47;;
6442;SDS011;3254;47.372;8.512;2022-10-16T02:05:33;3.90;;;2.40;;
6442;SDS011;3254;47.372;8.512;2022-10-16T02:08:04;3.53;;;3.33;;
6442;SDS011;3254;47.372;8.512;2022-10-16T02:10:30;3.60;;;2.83;;
6442;SDS011;3254;47.372;8.512;2022-10-16T02:13:04;8.33;;;3.20;;
6442;SDS011;3254;47.372;8.512;2022-10-16T02:15:39;4.50;;;3.17;;
6442;SDS011;3254;47.372;8.512;2022-10-16T02:18:05;5.73;;;3.43;;
6442;SDS011;3254;47.372;8.512;2022-10-16T02:20:33;4.27;;;3.80;;
6442;SDS011;3254;47.372;8.512;2022-10-16T02:24:09;6.10;;;3.93;;
6442;SDS011;3254;47.372;8.512;2022-10-16T02:26:21;11.63;;;3.50;;
6442;SDS011;3254;47.372;8.512;2022-10-16T02:28:57;3.73;;;3.40;;
6442;SDS011;3254;47.372;8.512;2022-10-16T02:31:27;3.20;;;3.10;;
6442;SDS011;3254;47.372;8.512;2022-10-16T02:33:56;12.47;;;3.87;;
6442;SDS011;3254;47.372;8.512;2022-10-16T02:36:24;4.17;;;3.57;;
6442;SDS011;3254;47.372;8.512;2022-10-16T02:38:51;23.07;;;4.30;;
6442;SDS011;3254;47.372;8.512;2022-10-16T02:41:17;10.60;;;3.87;;
6442;SDS011;3254;47.372;8.512;2022-10-16T02:43:46;8.30;;;3.77;;
6442;SDS011;3254;47.372;8.512;2022-10-16T02:46:12;8.13;;;5.07;;
6442;SDS011;3254;47.372;8.512;2022-10-16T02:48:37;11.57;;;4.50;;
6442;SDS011;3254;47.372;8.512;2022-10-16T02:51:04;7.43;;;3.73;;
6442;SDS011;3254;47.372;8.512;2022-10-16T02:53:30;17.63;;;5.73;;
6442;SDS011;3254;47.372;8.512;2022-10-16T02:55:55;6.67;;;4.47;;
6442;SDS011;3254;47.372;8.512;2022-10-16T02:58:21;4.20;;;3.90;;
6442;SDS011;3254;47.372;8.512;2022-10-16T03:00:47;6.60;;;5.50;;
6442;SDS011;3254;47.372;8.512;2022-10-16T03:03:12;5.47;;;4.97;;
6442;SDS011;3254;47.372;8.512;2022-10-16T03:05:38;7.77;;;5.70;;
6442;SDS011;3254;47.372;8.512;2022-10-16T03:08:04;23.13;;;5.40;;
6442;SDS011;3254;47.372;8.512;2022-10-16T03:10:29;10.10;;;6.00;;
6442;SDS011;3254;47.372;8.512;2022-10-16T03:12:55;20.10;;;5.50;;
6442;SDS011;3254;47.372;8.512;2022-10-16T03:15:20;7.00;;;5.40;;
6442;SDS011;3254;47.372;8.512;2022-10-16T03:17:46;12.67;;;5.80;;
6442;SDS011;3254;47.372;8.512;2022-10-16T03:20:12;7.23;;;6.17;;
6442;SDS011;3254;47.372;8.512;2022-10-16T03:22:37;8.67;;;5.77;;
6442;SDS011;3254;47.372;8.512;2022-10-16T03:25:03;11.33;;;5.70;;
6442;SDS011;3254;47.372;8.512;2022-10-16T03:27:29;6.50;;;5.00;;
6442;SDS011;3254;47.372;8.512;2022-10-16T03:29:55;9.43;;;5.40;;
6442;SDS011;3254;47.372;8.512;2022-10-16T03:32:20;13.47;;;4.90;;
6442;SDS011;3254;47.372;8.512;2022-10-16T03:34:46;25.97;;;4.63;;
6442;SDS011;3254;47.372;8.512;2022-10-16T03:37:12;8.90;;;4.87;;
6442;SDS011;3254;47.372;8.512;2022-10-16T03:39:38;5.10;;;4.13;;
6442;SDS011;3254;47.372;8.512;2022-10-16T03:42:04;4.73;;;4.33;;
6442;SDS011;3254;47.372;8.512;2022-10-16T03:44:29;13.43;;;4.10;;
6442;SDS011;3254;47.372;8.512;2022-10-16T03:46:55;7.07;;;5.20;;
6442;SDS011;3254;47.372;8.512;2022-10-16T03:49:20;12.97;;;5.23;;
6442;SDS011;3254;47.372;8.512;2022-10-16T03:51:46;15.30;;;5.40;;
6442;SDS011;3254;47.372;8.512;2022-10-16T03:54:12;9.87;;;5.30;;
6442;SDS011;3254;47.372;8.512;2022-10-16T03:56:37;9.33;;;6.37;;
6442;SDS011;3254;47.372;8.512;2022-10-16T03:59:03;7.47;;;4.83;;
6442;SDS011;3254;47.372;8.512;2022-10-16T04:01:29;4.97;;;4.20;;
6442;SDS011;3254;47.372;8.512;2022-10-16T04:03:55;7.93;;;5.20;;
6442;SDS011;3254;47.372;8.512;2022-10-16T04:06:20;4.70;;;4.07;;
6442;SDS011;3254;47.372;8.512;2022-10-16T04:08:46;7.80;;;4.00;;
6442;SDS011;3254;47.372;8.512;2022-10-16T04:11:13;6.43;;;4.53;;
6442;SDS011;3254;47.372;8.512;2022-10-16T04:13:38;8.77;;;3.80;;
6442;SDS011;3254;47.372;8.512;2022-10-16T04:16:04;6.97;;;3.70;;
6442;SDS011;3254;47.372;8.512;2022-10-16T04:18:30;10.73;;;4.50;;
6442;SDS011;3254;47.372;8.512;2022-10-16T04:20:56;9.10;;;3.50;;
6442;SDS011;3254;47.372;8.512;2022-10-16T04:23:21;4.93;;;2.90;;
6442;SDS011;3254;47.372;8.512;2022-10-16T04:25:48;4.53;;;3.43;;
6442;SDS011;3254;47.372;8.512;2022-10-16T04:28:14;4.40;;;2.87;;
6442;SDS011;3254;47.372;8.512;2022-10-16T04:30:39;3.30;;;2.93;;
6442;SDS011;3254;47.372;8.512;2022-10-16T04:33:05;8.63;;;2.80;;
6442;SDS011;3254;47.372;8.512;2022-10-16T04:35:31;7.33;;;2.40;;
6442;SDS011;3254;47.372;8.512;2022-10-16T04:37:57;9.23;;;2.77;;
6442;SDS011;3254;47.372;8.512;2022-10-16T04:40:23;3.43;;;3.10;;
6442;SDS011;3254;47.372;8.512;2022-10-16T04:42:49;5.33;;;2.40;;
6442;SDS011;3254;47.372;8.512;2022-10-16T04:45:14;4.10;;;3.20;;
6442;SDS011;3254;47.372;8.512;2022-10-16T04:47:40;3.47;;;3.17;;
6442;SDS011;3254;47.372;8.512;2022-10-16T04:50:06;7.60;;;2.90;;
6442;SDS011;3254;47.372;8.512;2022-10-16T04:52:32;7.20;;;2.87;;
6442;SDS011;3254;47.372;8.512;2022-10-16T04:54:58;6.00;;;3.30;;
6442;SDS011;3254;47.372;8.512;2022-10-16T04:57:26;12.93;;;2.60;;
6442;SDS011;3254;47.372;8.512;2022-10-16T04:59:52;4.40;;;2.90;;
6442;SDS011;3254;47.372;8.512;2022-10-16T05:02:18;3.57;;;3.13;;
6442;SDS011;3254;47.372;8.512;2022-10-16T05:04:44;3.87;;;2.70;;
6442;SDS011;3254;47.372;8.512;2022-10-16T05:07:09;3.27;;;3.07;;
6442;SDS011;3254;47.372;8.512;2022-10-16T05:09:35;3.70;;;3.13;;
6442;SDS011;3254;47.372;8.512;2022-10-16T05:12:00;4.70;;;2.97;;
6442;SDS011;3254;47.372;8.512;2022-10-16T05:14:28;4.87;;;2.90;;
6442;SDS011;3254;47.372;8.512;2022-10-16T05:16:54;5.63;;;2.87;;
6442;SDS011;3254;47.372;8.512;2022-10-16T05:19:19;6.87;;;2.13;;
6442;SDS011;3254;47.372;8.512;2022-10-16T05:21:45;3.77;;;3.40;;
6442;SDS011;3254;47.372;8.512;2022-10-16T05:24:11;3.83;;;3.50;;
6442;SDS011;3254;47.372;8.512;2022-10-16T05:26:36;5.90;;;3.20;;
6442;SDS011;3254;47.372;8.512;2022-10-16T05:29:02;9.40;;;2.73;;
6442;SDS011;3254;47.372;8.512;2022-10-16T05:31:28;8.23;;;2.90;;
6442;SDS011;3254;47.372;8.512;2022-10-16T05:33:57;8.17;;;2.50;;
6442;SDS011;3254;47.372;8.512;2022-10-16T05:36:26;4.80;;;2.77;;
6442;SDS011;3254;47.372;8.512;2022-10-16T05:38:52;3.30;;;3.03;;
6442;SDS011;3254;47.372;8.512;2022-10-16T05:41:18;3.73;;;3.43;;
6442;SDS011;3254;47.372;8.512;2022-10-16T05:43:46;3.03;;;2.83;;
6442;SDS011;3254;47.372;8.512;2022-10-16T05:46:12;10.03;;;3.57;;
6442;SDS011;3254;47.372;8.512;2022-10-16T05:48:38;8.63;;;3.30;;
6442;SDS011;3254;47.372;8.512;2022-10-16T05:51:05;6.87;;;3.10;;
6442;SDS011;3254;47.372;8.512;2022-10-16T05:53:33;5.23;;;3.20;;
6442;SDS011;3254;47.372;8.512;2022-10-16T05:55:59;8.00;;;3.37;;
6442;SDS011;3254;47.372;8.512;2022-10-16T05:58:28;3.00;;;2.70;;
6442;SDS011;3254;47.372;8.512;2022-10-16T06:00:59;6.20;;;3.17;;
6442;SDS011;3254;47.372;8.512;2022-10-16T06:03:27;5.33;;;3.33;;
6442;SDS011;3254;47.372;8.512;2022-10-16T06:05:53;4.43;;;3.73;;
6442;SDS011;3254;47.372;8.512;2022-10-16T06:08:19;18.57;;;2.87;;
6442;SDS011;3254;47.372;8.512;2022-10-16T06:10:46;4.00;;;3.50;;
6442;SDS011;3254;47.372;8.512;2022-10-16T06:13:13;3.60;;;2.93;;
6442;SDS011;3254;47.372;8.512;2022-10-16T06:15:39;8.13;;;3.27;;
6442;SDS011;3254;47.372;8.512;2022-10-16T06:18:09;5.00;;;4.07;;
6442;SDS011;3254;47.372;8.512;2022-10-16T06:20:35;3.50;;;3.20;;
6442;SDS011;3254;47.372;8.512;2022-10-16T06:23:02;16.60;;;2.90;;
6442;SDS011;3254;47.372;8.512;2022-10-16T06:25:29;7.40;;;2.93;;
6442;SDS011;3254;47.372;8.512;2022-10-16T06:27:55;13.23;;;2.87;;
6442;SDS011;3254;47.372;8.512;2022-10-16T06:30:21;3.87;;;3.60;;
6442;SDS011;3254;47.372;8.512;2022-10-16T06:32:46;4.33;;;3.03;;
6442;SDS011;3254;47.372;8.512;2022-10-16T06:35:12;7.30;;;2.80;;
6442;SDS011;3254;47.372;8.512;2022-10-16T06:37:37;2.27;;;2.17;;
6442;SDS011;3254;47.372;8.512;2022-10-16T06:40:03;5.47;;;3.63;;
6442;SDS011;3254;47.372;8.512;2022-10-16T06:42:29;8.17;;;2.97;;
6442;SDS011;3254;47.372;8.512;2022-10-16T06:44:55;5.47;;;2.53;;
6442;SDS011;3254;47.372;8.512;2022-10-16T06:47:21;7.37;;;3.20;;
6442;SDS011;3254;47.372;8.512;2022-10-16T06:49:46;5.03;;;3.00;;
6442;SDS011;3254;47.372;8.512;2022-10-16T06:52:12;5.80;;;3.07;;
6442;SDS011;3254;47.372;8.512;2022-10-16T06:54:37;6.40;;;3.00;;
6442;SDS011;3254;47.372;8.512;2022-10-16T06:57:03;6.47;;;3.80;;
6442;SDS011;3254;47.372;8.512;2022-10-16T06:59:29;5.73;;;3.10;;
6442;SDS011;3254;47.372;8.512;2022-10-16T07:01:54;6.83;;;2.77;;
6442;SDS011;3254;47.372;8.512;2022-10-16T07:04:20;3.23;;;2.93;;
6442;SDS011;3254;47.372;8.512;2022-10-16T07:06:45;3.50;;;2.40;;
6442;SDS011;3254;47.372;8.512;2022-10-16T07:09:11;15.40;;;3.33;;
6442;SDS011;3254;47.372;8.512;2022-10-16T07:11:39;8.83;;;3.33;;
6442;SDS011;3254;47.372;8.512;2022-10-16T07:14:08;4.00;;;3.20;;
6442;SDS011;3254;47.372;8.512;2022-10-16T07:16:40;4.63;;;3.60;;
6442;SDS011;3254;47.372;8.512;2022-10-16T07:19:05;3.67;;;3.37;;
6442;SDS011;3254;47.372;8.512;2022-10-16T07:21:32;3.10;;;2.90;;
6442;SDS011;3254;47.372;8.512;2022-10-16T07:24:02;3.60;;;3.30;;
6442;SDS011;3254;47.372;8.512;2022-10-16T07:26:31;6.70;;;3.67;;
6442;SDS011;3254;47.372;8.512;2022-10-16T07:28:58;11.63;;;2.83;;
6442;SDS011;3254;47.372;8.512;2022-10-16T07:31:25;3.53;;;3.27;;
6442;SDS011;3254;47.372;8.512;2022-10-16T07:33:50;4.63;;;3.50;;
6442;SDS011;3254;47.372;8.512;2022-10-16T07:36:17;3.93;;;3.00;;
6442;SDS011;3254;47.372;8.512;2022-10-16T07:38:45;8.63;;;5.13;;
6442;SDS011;3254;47.372;8.512;2022-10-16T07:41:12;4.23;;;3.77;;
6442;SDS011;3254;47.372;8.512;2022-10-16T07:43:39;6.60;;;3.87;;
6442;SDS011;3254;47.372;8.512;2022-10-16T07:46:05;5.13;;;3.17;;
6442;SDS011;3254;47.372;8.512;2022-10-16T07:48:31;10.10;;;2.90;;
6442;SDS011;3254;47.372;8.512;2022-10-16T07:50:59;8.30;;;3.00;;
6442;SDS011;3254;47.372;8.512;2022-10-16T07:53:26;3.80;;;2.37;;
6442;SDS011;3254;47.372;8.512;2022-10-16T07:55:56;9.60;;;2.43;;
6442;SDS011;3254;47.372;8.512;2022-10-16T07:58:23;3.97;;;2.60;;
6442;SDS011;3254;47.372;8.512;2022-10-16T08:00:49;3.83;;;2.30;;
6442;SDS011;3254;47.372;8.512;2022-10-16T08:03:14;11.87;;;3.13;;
6442;SDS011;3254;47.372;8.512;2022-10-16T08:05:40;8.43;;;2.50;;
6442;SDS011;3254;47.372;8.512;2022-10-16T08:08:06;3.47;;;3.17;;
6442;SDS011;3254;47.372;8.512;2022-10-16T08:10:31;5.27;;;3.90;;
6442;SDS011;3254;47.372;8.512;2022-10-16T08:12:57;4.50;;;2.10;;
6442;SDS011;3254;47.372;8.512;2022-10-16T08:15:23;2.00;;;1.90;;
6442;SDS011;3254;47.372;8.512;2022-10-16T08:17:56;2.50;;;1.87;;
6442;SDS011;3254;47.372;8.512;2022-10-16T08:20:27;1.70;;;1.60;;
6442;SDS011;3254;47.372;8.512;2022-10-16T08:22:53;6.33;;;1.63;;
6442;SDS011;3254;47.372;8.512;2022-10-16T08:25:19;6.90;;;1.70;;
6442;SDS011;3254;47.372;8.512;2022-10-16T08:27:45;1.67;;;1.30;;
6442;SDS011;3254;47.372;8.512;2022-10-16T08:30:12;4.83;;;1.70;;
6442;SDS011;3254;47.372;8.512;2022-10-16T08:32:38;3.00;;;1.63;;
6442;SDS011;3254;47.372;8.512;2022-10-16T08:35:04;4.07;;;1.80;;
6442;SDS011;3254;47.372;8.512;2022-10-16T08:37:30;2.10;;;1.30;;
6442;SDS011;3254;47.372;8.512;2022-10-16T08:39:57;4.27;;;1.83;;
6442;SDS011;3254;47.372;8.512;2022-10-16T08:42:28;1.97;;;1.67;;
6442;SDS011;3254;47.372;8.512;2022-10-16T08:45:15;2.80;;;1.50;;
6442;SDS011;3254;47.372;8.512;2022-10-16T08:48:09;8.07;;;2.57;;
6442;SDS011;3254;47.372;8.512;2022-10-16T08:50:48;6.80;;;1.70;;
6442;SDS011;3254;47.372;8.512;2022-10-16T08:53:17;2.20;;;1.50;;
6442;SDS011;3254;47.372;8.512;2022-10-16T08:55:50;4.93;;;1.77;;
6442;SDS011;3254;47.372;8.512;2022-10-16T08:58:18;4.70;;;1.60;;
6442;SDS011;3254;47.372;8.512;2022-10-16T09:00:58;4.73;;;1.47;;
6442;SDS011;3254;47.372;8.512;2022-10-16T09:06:46;4.90;;;1.60;;
6442;SDS011;3254;47.372;8.512;2022-10-16T09:11:50;5.80;;;1.07;;
6442;SDS011;3254;47.372;8.512;2022-10-16T09:23:12;3.00;;;1.80;;
6442;SDS011;3254;47.372;8.512;2022-10-16T09:25:51;7.23;;;1.93;;
6442;SDS011;3254;47.372;8.512;2022-10-16T09:28:19;6.80;;;1.80;;
6442;SDS011;3254;47.372;8.512;2022-10-16T09:30:45;2.70;;;1.10;;
6442;SDS011;3254;47.372;8.512;2022-10-16T09:33:13;3.10;;;1.30;;
6442;SDS011;3254;47.372;8.512;2022-10-16T09:35:43;2.20;;;1.20;;
6442;SDS011;3254;47.372;8.512;2022-10-16T09:40:59;3.40;;;1.00;;
6442;SDS011;3254;47.372;8.512;2022-10-16T09:43:33;2.50;;;1.00;;
6442;SDS011;3254;47.372;8.512;2022-10-16T09:46:27;5.27;;;1.17;;
6442;SDS011;3254;47.372;8.512;2022-10-16T09:49:02;6.23;;;1.13;;
6442;SDS011;3254;47.372;8.512;2022-10-16T09:53:59;2.33;;;1.43;;
6442;SDS011;3254;47.372;8.512;2022-10-16T09:56:35;3.90;;;1.10;;
6442;SDS011;3254;47.372;8.512;2022-10-16T09:59:10;1.27;;;0.97;;
6442;SDS011;3254;47.372;8.512;2022-10-16T10:01:49;1.60;;;1.10;;
6442;SDS011;3254;47.372;8.512;2022-10-16T10:04:20;0.80;;;0.70;;
6442;SDS011;3254;47.372;8.512;2022-10-16T10:06:49;3.50;;;1.20;;
6442;SDS011;3254;47.372;8.512;2022-10-16T10:09:23;1.30;;;1.10;;
6442;SDS011;3254;47.372;8.512;2022-10-16T10:11:54;1.50;;;1.07;;
6442;SDS011;3254;47.372;8.512;2022-10-16T10:17:12;1.30;;;0.83;;
6442;SDS011;3254;47.372;8.512;2022-10-16T10:22:50;1.30;;;1.20;;
6442;SDS011;3254;47.372;8.512;2022-10-16T10:25:23;2.03;;;1.43;;
6442;SDS011;3254;47.372;8.512;2022-10-16T10:38:45;1.63;;;1.17;;
6442;SDS011;3254;47.372;8.512;2022-10-16T10:41:32;3.30;;;0.90;;
6442;SDS011;3254;47.372;8.512;2022-10-16T10:47:01;2.23;;;1.10;;
6442;SDS011;3254;47.372;8.512;2022-10-16T10:54:59;1.43;;;0.90;;
6442;SDS011;3254;47.372;8.512;2022-10-16T10:57:36;2.93;;;0.90;;
6442;SDS011;3254;47.372;8.512;2022-10-16T11:16:04;0.90;;;0.80;;
6442;SDS011;3254;47.372;8.512;2022-10-16T11:24:48;4.03;;;1.50;;
6442;SDS011;3254;47.372;8.512;2022-10-16T11:27:20;2.60;;;0.80;;
6442;SDS011;3254;47.372;8.512;2022-10-16T11:29:57;4.33;;;0.90;;
6442;SDS011;3254;47.372;8.512;2022-10-16T11:32:36;1.57;;;1.40;;
6442;SDS011;3254;47.372;8.512;2022-10-16T11:35:17;4.03;;;1.43;;
6442;SDS011;3254;47.372;8.512;2022-10-16T11:37:48;2.70;;;1.10;;
6442;SDS011;3254;47.372;8.512;2022-10-16T11:40:22;3.63;;;1.20;;
6442;SDS011;3254;47.372;8.512;2022-10-16T11:43:02;3.43;;;1.00;;
6442;SDS011;3254;47.372;8.512;2022-10-16T11:45:40;3.63;;;1.30;;
6442;SDS011;3254;47.372;8.512;2022-10-16T11:49:10;2.13;;;0.97;;
6442;SDS011;3254;47.372;8.512;2022-10-16T11:51:21;1.63;;;0.90;;
6442;SDS011;3254;47.372;8.512;2022-10-16T11:54:01;2.27;;;1.53;;
6442;SDS011;3254;47.372;8.512;2022-10-16T11:56:36;6.73;;;1.13;;
6442;SDS011;3254;47.372;8.512;2022-10-16T12:01:42;4.80;;;1.50;;
6442;SDS011;3254;47.372;8.512;2022-10-16T12:04:18;1.03;;;0.93;;
6442;SDS011;3254;47.372;8.512;2022-10-16T12:07:32;3.10;;;1.17;;
6442;SDS011;3254;47.372;8.512;2022-10-16T12:09:52;1.93;;;1.50;;
6442;SDS011;3254;47.372;8.512;2022-10-16T12:12:28;2.90;;;1.40;;
6442;SDS011;3254;47.372;8.512;2022-10-16T12:17:55;5.03;;;1.07;;
6442;SDS011;3254;47.372;8.512;2022-10-16T12:22:56;2.50;;;0.90;;
6442;SDS011;3254;47.372;8.512;2022-10-16T12:25:31;1.23;;;1.13;;
6442;SDS011;3254;47.372;8.512;2022-10-16T12:30:32;1.17;;;1.07;;
6442;SDS011;3254;47.372;8.512;2022-10-16T12:33:04;2.20;;;1.10;;
6442;SDS011;3254;47.372;8.512;2022-10-16T12:35:33;0.90;;;0.90;;
6442;SDS011;3254;47.372;8.512;2022-10-16T12:38:05;3.67;;;1.10;;
6442;SDS011;3254;47.372;8.512;2022-10-16T12:40:58;6.93;;;1.10;;
6442;SDS011;3254;47.372;8.512;2022-10-16T12:48:30;1.27;;;0.80;;
6442;SDS011;3254;47.372;8.512;2022-10-16T12:50:56;0.80;;;0.80;;
6442;SDS011;3254;47.372;8.512;2022-10-16T12:53:25;4.30;;;1.50;;
6442;SDS011;3254;47.372;8.512;2022-10-16T13:00:57;4.50;;;1.33;;
6442;SDS011;3254;47.372;8.512;2022-10-16T13:16:56;8.90;;;1.20;;
6442;SDS011;3254;47.372;8.512;2022-10-16T13:19:45;1.83;;;1.50;;
6442;SDS011;3254;47.372;8.512;2022-10-16T13:25:22;4.33;;;1.60;;
6442;SDS011;3254;47.372;8.512;2022-10-16T13:27:56;1.00;;;0.90;;
6442;SDS011;3254;47.372;8.512;2022-10-16T13:30:40;0.90;;;0.90;;
6442;SDS011;3254;47.372;8.512;2022-10-16T13:33:18;4.87;;;1.20;;
6442;SDS011;3254;47.372;8.512;2022-10-16T13:35:52;2.30;;;0.90;;
6442;SDS011;3254;47.372;8.512;2022-10-16T13:38:21;1.13;;;1.00;;
6442;SDS011;3254;47.372;8.512;2022-10-16T13:43:17;2.60;;;1.00;;
6442;SDS011;3254;47.372;8.512;2022-10-16T13:45:52;7.63;;;1.30;;
6442;SDS011;3254;47.372;8.512;2022-10-16T13:48:18;1.37;;;1.10;;
6442;SDS011;3254;47.372;8.512;2022-10-16T13:50:44;1.17;;;1.07;;
6442;SDS011;3254;47.372;8.512;2022-10-16T13:53:13;5.17;;;1.37;;
6442;SDS011;3254;47.372;8.512;2022-10-16T13:55:39;1.53;;;0.97;;
6442;SDS011;3254;47.372;8.512;2022-10-16T13:58:11;8.57;;;1.30;;
6442;SDS011;3254;47.372;8.512;2022-10-16T14:00:38;4.93;;;1.30;;
6442;SDS011;3254;47.372;8.512;2022-10-16T14:03:05;3.30;;;1.20;;
6442;SDS011;3254;47.372;8.512;2022-10-16T14:05:42;9.30;;;1.40;;
6442;SDS011;3254;47.372;8.512;2022-10-16T14:08:13;1.83;;;1.00;;
6442;SDS011;3254;47.372;8.512;2022-10-16T14:10:39;1.23;;;1.13;;
6442;SDS011;3254;47.372;8.512;2022-10-16T14:13:05;4.83;;;1.10;;
6442;SDS011;3254;47.372;8.512;2022-10-16T14:15:33;2.20;;;0.90;;
6442;SDS011;3254;47.372;8.512;2022-10-16T14:18:00;3.63;;;1.50;;
6442;SDS011;3254;47.372;8.512;2022-10-16T14:20:27;1.73;;;1.03;;
6442;SDS011;3254;47.372;8.512;2022-10-16T14:22:59;3.53;;;1.00;;
6442;SDS011;3254;47.372;8.512;2022-10-16T14:25:30;5.07;;;1.50;;
6442;SDS011;3254;47.372;8.512;2022-10-16T14:27:58;4.27;;;1.20;;
6442;SDS011;3254;47.372;8.512;2022-10-16T14:30:27;2.30;;;1.17;;
6442;SDS011;3254;47.372;8.512;2022-10-16T14:32:58;1.20;;;1.07;;
6442;SDS011;3254;47.372;8.512;2022-10-16T14:35:36;3.03;;;1.10;;
6442;SDS011;3254;47.372;8.512;2022-10-16T14:38:04;2.83;;;1.17;;
6442;SDS011;3254;47.372;8.512;2022-10-16T14:40:32;4.50;;;1.50;;
6442;SDS011;3254;47.372;8.512;2022-10-16T14:43:03;1.17;;;1.07;;
6442;SDS011;3254;47.372;8.512;2022-10-16T14:45:30;3.83;;;1.53;;
6442;SDS011;3254;47.372;8.512;2022-10-16T14:47:59;4.90;;;1.37;;
6442;SDS011;3254;47.372;8.512;2022-10-16T14:50:27;2.60;;;1.40;;
6442;SDS011;3254;47.372;8.512;2022-10-16T14:52:53;3.63;;;1.93;;
6442;SDS011;3254;47.372;8.512;2022-10-16T14:55:20;3.23;;;1.33;;
6442;SDS011;3254;47.372;8.512;2022-10-16T14:57:46;2.30;;;1.80;;
6442;SDS011;3254;47.372;8.512;2022-10-16T15:00:16;5.60;;;1.50;;
6442;SDS011;3254;47.372;8.512;2022-10-16T15:02:44;3.40;;;1.90;;
6442;SDS011;3254;47.372;8.512;2022-10-16T15:05:15;3.20;;;1.40;;
6442;SDS011;3254;47.372;8.512;2022-10-16T15:07:43;1.70;;;1.60;;
6442;SDS011;3254;47.372;8.512;2022-10-16T15:10:10;10.60;;;1.80;;
6442;SDS011;3254;47.372;8.512;2022-10-16T15:12:37;3.27;;;1.57;;
6442;SDS011;3254;47.372;8.512;2022-10-16T15:15:10;3.63;;;2.10;;
6442;SDS011;3254;47.372;8.512;2022-10-16T15:17:40;1.40;;;1.30;;
6442;SDS011;3254;47.372;8.512;2022-10-16T15:20:06;6.97;;;1.87;;
6442;SDS011;3254;47.372;8.512;2022-10-16T15:22:32;4.60;;;1.90;;
6442;SDS011;3254;47.372;8.512;2022-10-16T15:24:57;2.20;;;2.10;;
6442;SDS011;3254;47.372;8.512;2022-10-16T15:27:23;3.53;;;1.97;;
6442;SDS011;3254;47.372;8.512;2022-10-16T15:29:49;4.40;;;2.00;;
6442;SDS011;3254;47.372;8.512;2022-10-16T15:32:14;3.97;;;2.20;;
6442;SDS011;3254;47.372;8.512;2022-10-16T15:34:40;3.20;;;1.50;;
6442;SDS011;3254;47.372;8.512;2022-10-16T15:37:05;2.40;;;1.87;;
6442;SDS011;3254;47.372;8.512;2022-10-16T15:39:31;3.53;;;1.70;;
6442;SDS011;3254;47.372;8.512;2022-10-16T15:41:57;5.03;;;1.90;;
6442;SDS011;3254;47.372;8.512;2022-10-16T15:44:22;2.67;;;1.80;;
6442;SDS011;3254;47.372;8.512;2022-10-16T15:46:50;2.30;;;1.77;;
6442;SDS011;3254;47.372;8.512;2022-10-16T15:49:19;3.73;;;1.70;;
6442;SDS011;3254;47.372;8.512;2022-10-16T15:51:44;2.47;;;1.50;;
6442;SDS011;3254;47.372;8.512;2022-10-16T15:54:11;1.70;;;1.60;;
6442;SDS011;3254;47.372;8.512;2022-10-16T15:56:36;2.80;;;1.67;;
6442;SDS011;3254;47.372;8.512;2022-10-16T15:59:02;4.00;;;1.80;;
6442;SDS011;3254;47.372;8.512;2022-10-16T16:01:31;5.23;;;2.20;;
6442;SDS011;3254;47.372;8.512;2022-10-16T16:03:58;10.53;;;1.77;;
6442;SDS011;3254;47.372;8.512;2022-10-16T16:06:24;5.47;;;1.80;;
6442;SDS011;3254;47.372;8.512;2022-10-16T16:08:50;4.07;;;1.70;;
6442;SDS011;3254;47.372;8.512;2022-10-16T16:11:16;5.60;;;3.40;;
6442;SDS011;3254;47.372;8.512;2022-10-16T16:13:42;4.50;;;2.50;;
6442;SDS011;3254;47.372;8.512;2022-10-16T16:16:09;4.53;;;3.40;;
6442;SDS011;3254;47.372;8.512;2022-10-16T16:18:39;9.60;;;4.10;;
6442;SDS011;3254;47.372;8.512;2022-10-16T16:21:06;8.00;;;3.17;;
6442;SDS011;3254;47.372;8.512;2022-10-16T16:23:32;5.73;;;3.57;;
6442;SDS011;3254;47.372;8.512;2022-10-16T16:26:09;8.53;;;4.27;;
6442;SDS011;3254;47.372;8.512;2022-10-16T16:28:38;5.37;;;4.10;;
6442;SDS011;3254;47.372;8.512;2022-10-16T16:31:05;6.47;;;4.47;;
6442;SDS011;3254;47.372;8.512;2022-10-16T16:33:31;29.57;;;8.47;;
6442;SDS011;3254;47.372;8.512;2022-10-16T16:35:57;12.90;;;4.03;;
6442;SDS011;3254;47.372;8.512;2022-10-16T16:38:24;3.93;;;3.63;;
6442;SDS011;3254;47.372;8.512;2022-10-16T16:40:50;5.60;;;4.83;;
6442;SDS011;3254;47.372;8.512;2022-10-16T16:43:17;5.60;;;4.30;;
6442;SDS011;3254;47.372;8.512;2022-10-16T16:45:43;17.27;;;4.20;;
6442;SDS011;3254;47.372;8.512;2022-10-16T16:48:08;5.83;;;4.43;;
6442;SDS011;3254;47.372;8.512;2022-10-16T16:50:37;5.93;;;4.50;;
6442;SDS011;3254;47.372;8.512;2022-10-16T16:53:03;13.43;;;5.00;;
6442;SDS011;3254;47.372;8.512;2022-10-16T16:55:28;4.47;;;4.10;;
6442;SDS011;3254;47.372;8.512;2022-10-16T16:57:54;9.57;;;5.57;;
6442;SDS011;3254;47.372;8.512;2022-10-16T17:00:21;7.83;;;5.70;;
6442;SDS011;3254;47.372;8.512;2022-10-16T17:02:48;5.60;;;4.33;;
6442;SDS011;3254;47.372;8.512;2022-10-16T17:05:14;5.00;;;4.50;;
6442;SDS011;3254;47.372;8.512;2022-10-16T17:07:41;10.20;;;6.47;;
6442;SDS011;3254;47.372;8.512;2022-10-16T17:10:07;10.33;;;5.40;;
6442;SDS011;3254;47.372;8.512;2022-10-16T17:12:33;6.33;;;3.80;;
6442;SDS011;3254;47.372;8.512;2022-10-16T17:14:59;7.10;;;4.00;;
6442;SDS011;3254;47.372;8.512;2022-10-16T17:17:25;4.17;;;3.70;;
6442;SDS011;3254;47.372;8.512;2022-10-16T17:19:51;8.63;;;4.57;;
6442;SDS011;3254;47.372;8.512;2022-10-16T17:22:17;13.10;;;5.00;;
6442;SDS011;3254;47.372;8.512;2022-10-16T17:24:44;5.23;;;3.30;;